sensor_id;sensor_type;location;lat;lon;timestamp;P1;durP1;ratioP1;P2;durP2;ratioP2
10458;SDS011;5277;48.722;8.736;2022-11-14T00:00:26;9.60;;;7.40;;
10458;SDS011;5277;48.722;8.736;2022-11-14T00:02:53;9.90;;;7.63;;
10458;SDS011;5277;48.722;8.736;2022-11-14T00:05:19;8.80;;;7.37;;
10458;SDS011;5277;48.722;8.736;2022-11-14T00:07:45;9.70;;;7.83;;
10458;SDS011;5277;48.722;8.736;2022-11-14T00:10:12;9.87;;;7.23;;
10458;SDS011;5277;48.722;8.736;2022-11-14T00:12:38;8.37;;;6.63;;
10458;SDS011;5277;48.722;8.736;2022-11-14T00:15:04;9.33;;;7.93;;
10458;SDS011;5277;48.722;8.736;2022-11-14T00:17:30;8.90;;;7.20;;
10458;SDS011;5277;48.722;8.736;2022-11-14T00:19:56;7.87;;;6.73;;
10458;SDS011;5277;48.722;8.736;2022-11-14T00:22:22;8.53;;;7.07;;
10458;SDS011;5277;48.722;8.736;2022-11-14T00:24:47;8.57;;;7.07;;
10458;SDS011;5277;48.722;8.736;2022-11-14T00:27:14;8.97;;;6.77;;
10458;SDS011;5277;48.722;8.736;2022-11-14T00:29:39;6.90;;;6.10;;
10458;SDS011;5277;48.722;8.736;2022-11-14T00:32:05;8.27;;;6.80;;
10458;SDS011;5277;48.722;8.736;2022-11-14T00:34:32;8.10;;;6.77;;
10458;SDS011;5277;48.722;8.736;2022-11-14T00:36:58;8.77;;;6.63;;
10458;SDS011;5277;48.722;8.736;2022-11-14T00:39:23;7.10;;;6.40;;
10458;SDS011;5277;48.722;8.736;2022-11-14T00:41:49;9.33;;;7.80;;
10458;SDS011;5277;48.722;8.736;2022-11-14T00:44:15;8.43;;;6.57;;
10458;SDS011;5277;48.722;8.736;2022-11-14T00:46:41;7.83;;;6.17;;
10458;SDS011;5277;48.722;8.736;2022-11-14T00:49:06;8.00;;;6.40;;
10458;SDS011;5277;48.722;8.736;2022-11-14T00:51:32;7.33;;;6.30;;
10458;SDS011;5277;48.722;8.736;2022-11-14T00:53:58;7.70;;;6.10;;
10458;SDS011;5277;48.722;8.736;2022-11-14T00:56:24;7.30;;;6.23;;
10458;SDS011;5277;48.722;8.736;2022-11-14T00:58:50;7.13;;;6.23;;
10458;SDS011;5277;48.722;8.736;2022-11-14T01:01:16;8.57;;;6.73;;
10458;SDS011;5277;48.722;8.736;2022-11-14T01:03:41;7.80;;;6.23;;
10458;SDS011;5277;48.722;8.736;2022-11-14T01:06:08;7.67;;;6.40;;
10458;SDS011;5277;48.722;8.736;2022-11-14T01:08:35;8.30;;;7.20;;
10458;SDS011;5277;48.722;8.736;2022-11-14T01:11:07;8.80;;;6.73;;
10458;SDS011;5277;48.722;8.736;2022-11-14T01:13:37;8.00;;;6.50;;
10458;SDS011;5277;48.722;8.736;2022-11-14T01:16:03;6.83;;;6.10;;
10458;SDS011;5277;48.722;8.736;2022-11-14T01:18:29;7.30;;;6.00;;
10458;SDS011;5277;48.722;8.736;2022-11-14T01:20:55;7.53;;;6.13;;
10458;SDS011;5277;48.722;8.736;2022-11-14T01:23:20;6.67;;;5.87;;
10458;SDS011;5277;48.722;8.736;2022-11-14T01:25:46;8.13;;;6.57;;
10458;SDS011;5277;48.722;8.736;2022-11-14T01:28:13;6.67;;;5.87;;
10458;SDS011;5277;48.722;8.736;2022-11-14T01:30:41;7.30;;;6.10;;
10458;SDS011;5277;48.722;8.736;2022-11-14T01:33:07;6.63;;;5.57;;
10458;SDS011;5277;48.722;8.736;2022-11-14T01:35:34;8.07;;;6.33;;
10458;SDS011;5277;48.722;8.736;2022-11-14T01:38:02;8.30;;;5.93;;
10458;SDS011;5277;48.722;8.736;2022-11-14T01:40:28;8.63;;;6.30;;
10458;SDS011;5277;48.722;8.736;2022-11-14T01:48:23;7.23;;;5.67;;
10458;SDS011;5277;48.722;8.736;2022-11-14T01:50:55;7.90;;;6.47;;
10458;SDS011;5277;48.722;8.736;2022-11-14T01:53:24;6.10;;;5.27;;
10458;SDS011;5277;48.722;8.736;2022-11-14T01:55:51;6.90;;;5.53;;
10458;SDS011;5277;48.722;8.736;2022-11-14T01:58:19;6.53;;;5.33;;
10458;SDS011;5277;48.722;8.736;2022-11-14T02:00:45;6.17;;;5.10;;
10458;SDS011;5277;48.722;8.736;2022-11-14T02:03:12;6.20;;;4.90;;
10458;SDS011;5277;48.722;8.736;2022-11-14T02:05:39;7.53;;;5.60;;
10458;SDS011;5277;48.722;8.736;2022-11-14T02:08:07;6.63;;;5.20;;
10458;SDS011;5277;48.722;8.736;2022-11-14T02:10:36;6.90;;;5.67;;
10458;SDS011;5277;48.722;8.736;2022-11-14T02:13:02;6.87;;;5.43;;
10458;SDS011;5277;48.722;8.736;2022-11-14T02:15:28;6.93;;;5.43;;
10458;SDS011;5277;48.722;8.736;2022-11-14T02:17:54;6.57;;;5.47;;
10458;SDS011;5277;48.722;8.736;2022-11-14T02:22:47;6.20;;;5.10;;
10458;SDS011;5277;48.722;8.736;2022-11-14T02:25:13;6.23;;;5.10;;
10458;SDS011;5277;48.722;8.736;2022-11-14T02:27:43;7.53;;;5.70;;
10458;SDS011;5277;48.722;8.736;2022-11-14T02:30:10;7.70;;;5.80;;
10458;SDS011;5277;48.722;8.736;2022-11-14T02:32:38;6.63;;;5.73;;
10458;SDS011;5277;48.722;8.736;2022-11-14T02:35:04;7.67;;;5.33;;
10458;SDS011;5277;48.722;8.736;2022-11-14T02:37:31;7.23;;;5.57;;
10458;SDS011;5277;48.722;8.736;2022-11-14T02:39:57;7.60;;;5.37;;
10458;SDS011;5277;48.722;8.736;2022-11-14T02:42:23;6.30;;;5.53;;
10458;SDS011;5277;48.722;8.736;2022-11-14T02:44:49;6.23;;;5.47;;
10458;SDS011;5277;48.722;8.736;2022-11-14T02:47:14;6.27;;;5.23;;
10458;SDS011;5277;48.722;8.736;2022-11-14T02:49:40;7.83;;;5.37;;
10458;SDS011;5277;48.722;8.736;2022-11-14T02:52:06;7.17;;;5.57;;
10458;SDS011;5277;48.722;8.736;2022-11-14T02:54:32;6.23;;;4.93;;
10458;SDS011;5277;48.722;8.736;2022-11-14T02:56:57;7.03;;;5.60;;
10458;SDS011;5277;48.722;8.736;2022-11-14T02:59:23;6.20;;;5.07;;
10458;SDS011;5277;48.722;8.736;2022-11-14T03:01:48;6.37;;;5.17;;
10458;SDS011;5277;48.722;8.736;2022-11-14T03:04:14;6.10;;;5.13;;
10458;SDS011;5277;48.722;8.736;2022-11-14T03:06:40;6.40;;;4.90;;
10458;SDS011;5277;48.722;8.736;2022-11-14T03:09:05;6.60;;;4.83;;
10458;SDS011;5277;48.722;8.736;2022-11-14T03:11:31;5.93;;;4.80;;
10458;SDS011;5277;48.722;8.736;2022-11-14T03:13:58;6.67;;;4.93;;
10458;SDS011;5277;48.722;8.736;2022-11-14T03:16:24;5.97;;;4.83;;
10458;SDS011;5277;48.722;8.736;2022-11-14T03:18:49;5.63;;;4.63;;
10458;SDS011;5277;48.722;8.736;2022-11-14T03:21:19;6.00;;;4.90;;
10458;SDS011;5277;48.722;8.736;2022-11-14T03:23:46;6.90;;;5.40;;
10458;SDS011;5277;48.722;8.736;2022-11-14T03:26:12;6.50;;;5.37;;
10458;SDS011;5277;48.722;8.736;2022-11-14T03:28:39;6.77;;;5.67;;
10458;SDS011;5277;48.722;8.736;2022-11-14T03:31:05;6.33;;;5.50;;
10458;SDS011;5277;48.722;8.736;2022-11-14T03:33:32;6.60;;;5.43;;
10458;SDS011;5277;48.722;8.736;2022-11-14T03:35:58;7.63;;;5.77;;
10458;SDS011;5277;48.722;8.736;2022-11-14T03:38:24;5.80;;;4.90;;
10458;SDS011;5277;48.722;8.736;2022-11-14T03:40:50;8.30;;;5.77;;
10458;SDS011;5277;48.722;8.736;2022-11-14T03:43:17;6.90;;;5.57;;
10458;SDS011;5277;48.722;8.736;2022-11-14T03:45:43;6.23;;;5.27;;
10458;SDS011;5277;48.722;8.736;2022-11-14T03:48:09;7.53;;;4.57;;
10458;SDS011;5277;48.722;8.736;2022-11-14T03:50:36;5.77;;;4.80;;
10458;SDS011;5277;48.722;8.736;2022-11-14T03:53:01;6.33;;;5.23;;
10458;SDS011;5277;48.722;8.736;2022-11-14T03:55:27;6.20;;;4.77;;
10458;SDS011;5277;48.722;8.736;2022-11-14T03:57:53;5.40;;;4.37;;
10458;SDS011;5277;48.722;8.736;2022-11-14T04:00:19;5.77;;;4.60;;
10458;SDS011;5277;48.722;8.736;2022-11-14T04:02:45;4.97;;;4.07;;
10458;SDS011;5277;48.722;8.736;2022-11-14T04:05:11;5.73;;;4.67;;
10458;SDS011;5277;48.722;8.736;2022-11-14T04:07:37;5.47;;;4.30;;
10458;SDS011;5277;48.722;8.736;2022-11-14T04:10:03;5.43;;;4.70;;
10458;SDS011;5277;48.722;8.736;2022-11-14T04:12:29;4.60;;;4.03;;
10458;SDS011;5277;48.722;8.736;2022-11-14T04:14:55;4.93;;;4.13;;
10458;SDS011;5277;48.722;8.736;2022-11-14T04:17:21;5.40;;;4.07;;
10458;SDS011;5277;48.722;8.736;2022-11-14T04:19:46;4.77;;;3.90;;
10458;SDS011;5277;48.722;8.736;2022-11-14T04:22:12;4.63;;;3.73;;
10458;SDS011;5277;48.722;8.736;2022-11-14T04:24:38;4.70;;;3.80;;
10458;SDS011;5277;48.722;8.736;2022-11-14T04:27:03;4.57;;;3.73;;
10458;SDS011;5277;48.722;8.736;2022-11-14T04:29:29;4.33;;;3.50;;
10458;SDS011;5277;48.722;8.736;2022-11-14T04:31:55;3.93;;;3.30;;
10458;SDS011;5277;48.722;8.736;2022-11-14T04:34:20;3.43;;;3.13;;
10458;SDS011;5277;48.722;8.736;2022-11-14T04:36:46;4.50;;;3.67;;
10458;SDS011;5277;48.722;8.736;2022-11-14T04:39:15;4.70;;;3.87;;
10458;SDS011;5277;48.722;8.736;2022-11-14T04:41:41;3.97;;;3.57;;
10458;SDS011;5277;48.722;8.736;2022-11-14T04:44:07;4.27;;;3.73;;
10458;SDS011;5277;48.722;8.736;2022-11-14T04:46:33;4.70;;;3.73;;
10458;SDS011;5277;48.722;8.736;2022-11-14T04:48:58;5.33;;;4.27;;
10458;SDS011;5277;48.722;8.736;2022-11-14T04:51:24;5.00;;;4.00;;
10458;SDS011;5277;48.722;8.736;2022-11-14T04:53:50;4.30;;;3.50;;
10458;SDS011;5277;48.722;8.736;2022-11-14T04:56:15;4.70;;;3.87;;
10458;SDS011;5277;48.722;8.736;2022-11-14T04:58:41;5.27;;;4.37;;
10458;SDS011;5277;48.722;8.736;2022-11-14T05:01:07;5.83;;;4.53;;
10458;SDS011;5277;48.722;8.736;2022-11-14T05:03:34;8.63;;;4.13;;
10458;SDS011;5277;48.722;8.736;2022-11-14T05:06:00;4.87;;;4.07;;
10458;SDS011;5277;48.722;8.736;2022-11-14T05:08:25;6.50;;;4.30;;
10458;SDS011;5277;48.722;8.736;2022-11-14T05:10:51;7.77;;;4.30;;
10458;SDS011;5277;48.722;8.736;2022-11-14T05:13:17;4.43;;;3.87;;
10458;SDS011;5277;48.722;8.736;2022-11-14T05:15:43;4.67;;;3.87;;
10458;SDS011;5277;48.722;8.736;2022-11-14T05:18:08;6.60;;;4.23;;
10458;SDS011;5277;48.722;8.736;2022-11-14T05:20:34;5.30;;;4.20;;
10458;SDS011;5277;48.722;8.736;2022-11-14T05:23:00;6.27;;;4.70;;
10458;SDS011;5277;48.722;8.736;2022-11-14T05:25:25;5.27;;;4.13;;
10458;SDS011;5277;48.722;8.736;2022-11-14T05:27:51;6.67;;;4.57;;
10458;SDS011;5277;48.722;8.736;2022-11-14T05:30:17;5.90;;;4.60;;
10458;SDS011;5277;48.722;8.736;2022-11-14T05:32:43;5.57;;;4.63;;
10458;SDS011;5277;48.722;8.736;2022-11-14T05:35:08;6.20;;;4.80;;
10458;SDS011;5277;48.722;8.736;2022-11-14T05:37:34;6.50;;;4.90;;
10458;SDS011;5277;48.722;8.736;2022-11-14T05:40:00;5.93;;;4.60;;
10458;SDS011;5277;48.722;8.736;2022-11-14T05:42:26;5.83;;;4.60;;
10458;SDS011;5277;48.722;8.736;2022-11-14T05:44:52;6.40;;;4.50;;
10458;SDS011;5277;48.722;8.736;2022-11-14T05:47:18;7.80;;;4.77;;
10458;SDS011;5277;48.722;8.736;2022-11-14T05:49:44;5.20;;;4.43;;
10458;SDS011;5277;48.722;8.736;2022-11-14T05:52:10;5.87;;;4.30;;
10458;SDS011;5277;48.722;8.736;2022-11-14T05:54:42;5.10;;;4.00;;
10458;SDS011;5277;48.722;8.736;2022-11-14T05:57:08;5.40;;;3.90;;
10458;SDS011;5277;48.722;8.736;2022-11-14T05:59:38;5.20;;;4.23;;
10458;SDS011;5277;48.722;8.736;2022-11-14T06:02:04;5.07;;;4.30;;
10458;SDS011;5277;48.722;8.736;2022-11-14T06:04:33;4.67;;;3.90;;
10458;SDS011;5277;48.722;8.736;2022-11-14T06:07:12;4.63;;;3.77;;
10458;SDS011;5277;48.722;8.736;2022-11-14T06:09:38;4.93;;;4.17;;
10458;SDS011;5277;48.722;8.736;2022-11-14T06:12:04;5.10;;;4.20;;
10458;SDS011;5277;48.722;8.736;2022-11-14T06:14:32;4.40;;;3.83;;
10458;SDS011;5277;48.722;8.736;2022-11-14T06:16:58;4.90;;;4.13;;
10458;SDS011;5277;48.722;8.736;2022-11-14T06:19:27;5.03;;;3.87;;
10458;SDS011;5277;48.722;8.736;2022-11-14T06:22:17;5.03;;;4.00;;
10458;SDS011;5277;48.722;8.736;2022-11-14T06:24:43;6.17;;;4.40;;
10458;SDS011;5277;48.722;8.736;2022-11-14T06:27:09;6.93;;;4.83;;
10458;SDS011;5277;48.722;8.736;2022-11-14T06:29:35;7.73;;;4.93;;
10458;SDS011;5277;48.722;8.736;2022-11-14T06:32:01;6.03;;;4.67;;
10458;SDS011;5277;48.722;8.736;2022-11-14T06:34:29;6.73;;;5.13;;
10458;SDS011;5277;48.722;8.736;2022-11-14T06:36:58;7.07;;;5.30;;
10458;SDS011;5277;48.722;8.736;2022-11-14T06:39:25;6.67;;;5.23;;
10458;SDS011;5277;48.722;8.736;2022-11-14T06:41:53;7.77;;;5.50;;
10458;SDS011;5277;48.722;8.736;2022-11-14T06:44:19;7.67;;;5.43;;
10458;SDS011;5277;48.722;8.736;2022-11-14T06:46:46;7.83;;;5.40;;
10458;SDS011;5277;48.722;8.736;2022-11-14T06:49:11;7.17;;;5.30;;
10458;SDS011;5277;48.722;8.736;2022-11-14T06:51:37;6.73;;;5.30;;
10458;SDS011;5277;48.722;8.736;2022-11-14T06:54:03;7.27;;;5.50;;
10458;SDS011;5277;48.722;8.736;2022-11-14T06:56:28;7.87;;;5.27;;
10458;SDS011;5277;48.722;8.736;2022-11-14T06:58:54;8.27;;;5.70;;
10458;SDS011;5277;48.722;8.736;2022-11-14T07:01:21;11.83;;;6.33;;
10458;SDS011;5277;48.722;8.736;2022-11-14T07:03:48;9.37;;;6.87;;
10458;SDS011;5277;48.722;8.736;2022-11-14T07:06:17;7.17;;;6.00;;
10458;SDS011;5277;48.722;8.736;2022-11-14T07:08:45;12.03;;;6.77;;
10458;SDS011;5277;48.722;8.736;2022-11-14T07:11:11;8.17;;;5.67;;
10458;SDS011;5277;48.722;8.736;2022-11-14T07:13:49;7.53;;;5.90;;
10458;SDS011;5277;48.722;8.736;2022-11-14T07:16:16;7.90;;;5.73;;
10458;SDS011;5277;48.722;8.736;2022-11-14T07:18:45;8.23;;;6.57;;
10458;SDS011;5277;48.722;8.736;2022-11-14T07:21:18;14.17;;;9.73;;
10458;SDS011;5277;48.722;8.736;2022-11-14T07:23:45;10.17;;;7.83;;
10458;SDS011;5277;48.722;8.736;2022-11-14T07:26:11;9.00;;;7.33;;
10458;SDS011;5277;48.722;8.736;2022-11-14T07:28:39;9.27;;;7.17;;
10458;SDS011;5277;48.722;8.736;2022-11-14T07:31:11;12.93;;;9.47;;
10458;SDS011;5277;48.722;8.736;2022-11-14T07:33:41;10.87;;;7.70;;
10458;SDS011;5277;48.722;8.736;2022-11-14T07:36:08;11.17;;;8.57;;
10458;SDS011;5277;48.722;8.736;2022-11-14T07:38:41;12.53;;;8.57;;
10458;SDS011;5277;48.722;8.736;2022-11-14T07:41:14;10.77;;;6.90;;
10458;SDS011;5277;48.722;8.736;2022-11-14T07:43:41;9.20;;;6.23;;
10458;SDS011;5277;48.722;8.736;2022-11-14T07:46:09;8.30;;;6.57;;
10458;SDS011;5277;48.722;8.736;2022-11-14T07:48:37;9.17;;;6.70;;
10458;SDS011;5277;48.722;8.736;2022-11-14T07:51:03;12.17;;;7.23;;
10458;SDS011;5277;48.722;8.736;2022-11-14T07:53:31;7.97;;;6.40;;
10458;SDS011;5277;48.722;8.736;2022-11-14T07:56:00;8.73;;;6.43;;
10458;SDS011;5277;48.722;8.736;2022-11-14T07:58:28;8.87;;;6.60;;
10458;SDS011;5277;48.722;8.736;2022-11-14T08:00:53;9.37;;;6.77;;
10458;SDS011;5277;48.722;8.736;2022-11-14T08:03:19;8.73;;;6.60;;
10458;SDS011;5277;48.722;8.736;2022-11-14T08:05:45;8.87;;;6.50;;
10458;SDS011;5277;48.722;8.736;2022-11-14T08:08:10;8.70;;;6.60;;
10458;SDS011;5277;48.722;8.736;2022-11-14T08:10:36;8.50;;;6.70;;
10458;SDS011;5277;48.722;8.736;2022-11-14T08:13:03;9.47;;;6.70;;
10458;SDS011;5277;48.722;8.736;2022-11-14T08:15:30;8.70;;;6.87;;
10458;SDS011;5277;48.722;8.736;2022-11-14T08:17:58;10.00;;;6.97;;
10458;SDS011;5277;48.722;8.736;2022-11-14T08:20:26;8.13;;;6.57;;
10458;SDS011;5277;48.722;8.736;2022-11-14T08:22:52;19.00;;;13.13;;
10458;SDS011;5277;48.722;8.736;2022-11-14T08:25:29;13.63;;;9.23;;
10458;SDS011;5277;48.722;8.736;2022-11-14T08:27:55;12.70;;;8.57;;
10458;SDS011;5277;48.722;8.736;2022-11-14T08:30:20;11.73;;;8.17;;
10458;SDS011;5277;48.722;8.736;2022-11-14T08:32:46;10.63;;;7.43;;
10458;SDS011;5277;48.722;8.736;2022-11-14T08:35:12;10.37;;;7.67;;
10458;SDS011;5277;48.722;8.736;2022-11-14T08:37:38;8.90;;;6.83;;
10458;SDS011;5277;48.722;8.736;2022-11-14T08:40:03;9.97;;;6.93;;
10458;SDS011;5277;48.722;8.736;2022-11-14T08:42:30;9.20;;;7.23;;
10458;SDS011;5277;48.722;8.736;2022-11-14T08:44:56;12.27;;;7.63;;
10458;SDS011;5277;48.722;8.736;2022-11-14T08:47:21;12.00;;;8.80;;
10458;SDS011;5277;48.722;8.736;2022-11-14T08:49:47;10.87;;;7.77;;
10458;SDS011;5277;48.722;8.736;2022-11-14T08:52:13;14.10;;;10.53;;
10458;SDS011;5277;48.722;8.736;2022-11-14T08:54:38;11.93;;;8.43;;
10458;SDS011;5277;48.722;8.736;2022-11-14T08:57:04;11.03;;;8.23;;
10458;SDS011;5277;48.722;8.736;2022-11-14T08:59:30;17.63;;;12.63;;
10458;SDS011;5277;48.722;8.736;2022-11-14T09:01:56;12.83;;;9.77;;
10458;SDS011;5277;48.722;8.736;2022-11-14T09:04:22;11.07;;;8.07;;
10458;SDS011;5277;48.722;8.736;2022-11-14T09:06:48;12.53;;;7.37;;
10458;SDS011;5277;48.722;8.736;2022-11-14T09:09:14;11.13;;;8.17;;
10458;SDS011;5277;48.722;8.736;2022-11-14T09:11:39;14.27;;;8.63;;
10458;SDS011;5277;48.722;8.736;2022-11-14T09:14:05;11.73;;;7.67;;
10458;SDS011;5277;48.722;8.736;2022-11-14T09:16:31;10.00;;;7.47;;
10458;SDS011;5277;48.722;8.736;2022-11-14T09:18:58;12.90;;;8.83;;
10458;SDS011;5277;48.722;8.736;2022-11-14T09:21:24;12.03;;;8.30;;
10458;SDS011;5277;48.722;8.736;2022-11-14T09:23:50;11.93;;;9.17;;
10458;SDS011;5277;48.722;8.736;2022-11-14T09:26:16;14.47;;;9.67;;
10458;SDS011;5277;48.722;8.736;2022-11-14T09:28:43;13.93;;;9.20;;
10458;SDS011;5277;48.722;8.736;2022-11-14T09:31:10;17.60;;;9.67;;
10458;SDS011;5277;48.722;8.736;2022-11-14T09:33:37;28.53;;;12.93;;
10458;SDS011;5277;48.722;8.736;2022-11-14T09:36:03;46.50;;;16.77;;
10458;SDS011;5277;48.722;8.736;2022-11-14T09:38:31;36.80;;;14.45;;
10458;SDS011;5277;48.722;8.736;2022-11-14T09:46:16;22.87;;;10.60;;
10458;SDS011;5277;48.722;8.736;2022-11-14T09:48:46;19.73;;;10.03;;
10458;SDS011;5277;48.722;8.736;2022-11-14T09:51:19;16.63;;;9.43;;
10458;SDS011;5277;48.722;8.736;2022-11-14T09:56:16;16.90;;;9.27;;
10458;SDS011;5277;48.722;8.736;2022-11-14T09:58:46;15.40;;;9.00;;
10458;SDS011;5277;48.722;8.736;2022-11-14T10:04:03;17.10;;;11.07;;
10458;SDS011;5277;48.722;8.736;2022-11-14T10:06:58;15.47;;;10.43;;
10458;SDS011;5277;48.722;8.736;2022-11-14T10:12:09;13.73;;;9.15;;
10458;SDS011;5277;48.722;8.736;2022-11-14T10:22:51;11.93;;;8.20;;
10458;SDS011;5277;48.722;8.736;2022-11-14T10:33:32;14.33;;;9.03;;
10458;SDS011;5277;48.722;8.736;2022-11-14T10:38:48;10.68;;;8.07;;
10458;SDS011;5277;48.722;8.736;2022-11-14T10:41:18;11.43;;;8.43;;
10458;SDS011;5277;48.722;8.736;2022-11-14T10:43:45;16.55;;;8.45;;
10458;SDS011;5277;48.722;8.736;2022-11-14T10:48:56;12.98;;;8.60;;
10458;SDS011;5277;48.722;8.736;2022-11-14T10:51:34;12.88;;;8.88;;
10458;SDS011;5277;48.722;8.736;2022-11-14T10:56:49;13.65;;;9.05;;
10458;SDS011;5277;48.722;8.736;2022-11-14T10:59:19;11.63;;;7.78;;
10458;SDS011;5277;48.722;8.736;2022-11-14T11:04:18;12.55;;;9.43;;
10458;SDS011;5277;48.722;8.736;2022-11-14T11:06:47;15.75;;;9.48;;
10458;SDS011;5277;48.722;8.736;2022-11-14T11:09:15;11.75;;;8.88;;
10458;SDS011;5277;48.722;8.736;2022-11-14T11:12:02;12.10;;;8.60;;
10458;SDS011;5277;48.722;8.736;2022-11-14T11:14:29;15.32;;;9.32;;
10458;SDS011;5277;48.722;8.736;2022-11-14T11:19:36;14.73;;;10.20;;
10458;SDS011;5277;48.722;8.736;2022-11-14T11:22:03;14.88;;;11.07;;
10458;SDS011;5277;48.722;8.736;2022-11-14T11:24:47;13.15;;;9.60;;
10458;SDS011;5277;48.722;8.736;2022-11-14T11:27:17;16.60;;;9.80;;
10458;SDS011;5277;48.722;8.736;2022-11-14T11:30:00;11.90;;;8.45;;
10458;SDS011;5277;48.722;8.736;2022-11-14T11:32:28;14.95;;;9.45;;
10458;SDS011;5277;48.722;8.736;2022-11-14T11:34:54;13.63;;;7.63;;
10458;SDS011;5277;48.722;8.736;2022-11-14T11:37:29;15.70;;;7.60;;
10458;SDS011;5277;48.722;8.736;2022-11-14T11:40:13;7.03;;;5.13;;
10458;SDS011;5277;48.722;8.736;2022-11-14T11:42:46;4.97;;;4.10;;
10458;SDS011;5277;48.722;8.736;2022-11-14T11:45:17;5.45;;;4.28;;
10458;SDS011;5277;48.722;8.736;2022-11-14T11:47:49;8.68;;;3.75;;
10458;SDS011;5277;48.722;8.736;2022-11-14T11:50:29;3.63;;;2.72;;
10458;SDS011;5277;48.722;8.736;2022-11-14T11:53:17;3.30;;;2.30;;
10458;SDS011;5277;48.722;8.736;2022-11-14T11:55:54;2.58;;;2.10;;
10458;SDS011;5277;48.722;8.736;2022-11-14T11:58:39;5.03;;;3.20;;
10458;SDS011;5277;48.722;8.736;2022-11-14T12:01:12;4.43;;;2.58;;
10458;SDS011;5277;48.722;8.736;2022-11-14T12:03:40;4.00;;;2.63;;
10458;SDS011;5277;48.722;8.736;2022-11-14T12:06:21;5.10;;;2.63;;
10458;SDS011;5277;48.722;8.736;2022-11-14T12:11:36;2.75;;;2.10;;
10458;SDS011;5277;48.722;8.736;2022-11-14T12:14:11;2.88;;;2.13;;
10458;SDS011;5277;48.722;8.736;2022-11-14T12:20:10;2.78;;;2.40;;
10458;SDS011;5277;48.722;8.736;2022-11-14T12:25:47;2.20;;;1.55;;
10458;SDS011;5277;48.722;8.736;2022-11-14T12:31:23;4.13;;;1.90;;
10458;SDS011;5277;48.722;8.736;2022-11-14T12:34:01;2.80;;;1.70;;
10458;SDS011;5277;48.722;8.736;2022-11-14T12:36:32;2.50;;;1.63;;
10458;SDS011;5277;48.722;8.736;2022-11-14T12:39:05;3.05;;;1.73;;
10458;SDS011;5277;48.722;8.736;2022-11-14T12:42:06;2.40;;;1.90;;
10458;SDS011;5277;48.722;8.736;2022-11-14T12:44:40;5.55;;;2.17;;
10458;SDS011;5277;48.722;8.736;2022-11-14T12:52:40;2.50;;;1.90;;
10458;SDS011;5277;48.722;8.736;2022-11-14T12:57:48;2.97;;;2.10;;
10458;SDS011;5277;48.722;8.736;2022-11-14T13:00:55;3.13;;;1.70;;
10458;SDS011;5277;48.722;8.736;2022-11-14T13:06:12;8.05;;;1.92;;
10458;SDS011;5277;48.722;8.736;2022-11-14T13:14:26;4.03;;;1.98;;
10458;SDS011;5277;48.722;8.736;2022-11-14T13:20:05;3.63;;;1.95;;
10458;SDS011;5277;48.722;8.736;2022-11-14T13:39:26;3.00;;;2.05;;
10458;SDS011;5277;48.722;8.736;2022-11-14T13:42:06;2.63;;;1.90;;
10458;SDS011;5277;48.722;8.736;2022-11-14T13:45:03;3.20;;;2.00;;
10458;SDS011;5277;48.722;8.736;2022-11-14T13:50:28;3.63;;;2.17;;
10458;SDS011;5277;48.722;8.736;2022-11-14T13:53:10;2.92;;;2.20;;
10458;SDS011;5277;48.722;8.736;2022-11-14T13:55:53;4.25;;;1.73;;
10458;SDS011;5277;48.722;8.736;2022-11-14T13:58:29;5.35;;;2.00;;
10458;SDS011;5277;48.722;8.736;2022-11-14T14:06:07;2.65;;;2.10;;
10458;SDS011;5277;48.722;8.736;2022-11-14T14:16:37;5.07;;;2.47;;
10458;SDS011;5277;48.722;8.736;2022-11-14T14:30:35;7.25;;;4.65;;
10458;SDS011;5277;48.722;8.736;2022-11-14T14:33:14;3.85;;;2.50;;
10458;SDS011;5277;48.722;8.736;2022-11-14T14:35:48;4.20;;;2.92;;
10458;SDS011;5277;48.722;8.736;2022-11-14T14:38:23;3.42;;;2.22;;
10458;SDS011;5277;48.722;8.736;2022-11-14T14:40:52;4.82;;;1.77;;
10458;SDS011;5277;48.722;8.736;2022-11-14T14:43:24;5.85;;;2.55;;
10458;SDS011;5277;48.722;8.736;2022-11-14T14:45:58;5.85;;;2.10;;
10458;SDS011;5277;48.722;8.736;2022-11-14T14:48:32;3.65;;;2.63;;
10458;SDS011;5277;48.722;8.736;2022-11-14T14:51:03;3.95;;;2.40;;
10458;SDS011;5277;48.722;8.736;2022-11-14T14:53:33;4.30;;;2.30;;
10458;SDS011;5277;48.722;8.736;2022-11-14T14:58:29;6.18;;;2.35;;
10458;SDS011;5277;48.722;8.736;2022-11-14T15:06:36;4.70;;;2.50;;
10458;SDS011;5277;48.722;8.736;2022-11-14T15:09:24;4.07;;;2.70;;
10458;SDS011;5277;48.722;8.736;2022-11-14T15:11:59;5.18;;;2.78;;
10458;SDS011;5277;48.722;8.736;2022-11-14T15:14:28;4.43;;;2.80;;
10458;SDS011;5277;48.722;8.736;2022-11-14T15:16:56;4.47;;;2.65;;
10458;SDS011;5277;48.722;8.736;2022-11-14T15:19:31;5.28;;;2.90;;
10458;SDS011;5277;48.722;8.736;2022-11-14T15:22:18;5.93;;;2.70;;
10458;SDS011;5277;48.722;8.736;2022-11-14T15:27:34;4.43;;;2.95;;
10458;SDS011;5277;48.722;8.736;2022-11-14T15:30:25;3.50;;;2.58;;
10458;SDS011;5277;48.722;8.736;2022-11-14T15:33:05;5.18;;;2.92;;
10458;SDS011;5277;48.722;8.736;2022-11-14T15:36:09;6.00;;;2.70;;
10458;SDS011;5277;48.722;8.736;2022-11-14T15:39:04;5.28;;;2.70;;
10458;SDS011;5277;48.722;8.736;2022-11-14T15:42:10;5.68;;;2.40;;
10458;SDS011;5277;48.722;8.736;2022-11-14T15:44:46;6.65;;;2.80;;
10458;SDS011;5277;48.722;8.736;2022-11-14T15:47:45;5.90;;;2.50;;
10458;SDS011;5277;48.722;8.736;2022-11-14T15:52:54;6.80;;;3.03;;
10458;SDS011;5277;48.722;8.736;2022-11-14T15:55:34;4.18;;;2.50;;
10458;SDS011;5277;48.722;8.736;2022-11-14T15:58:00;6.72;;;3.60;;
10458;SDS011;5277;48.722;8.736;2022-11-14T16:00:26;9.40;;;3.28;;
10458;SDS011;5277;48.722;8.736;2022-11-14T16:03:00;3.40;;;2.95;;
10458;SDS011;5277;48.722;8.736;2022-11-14T16:05:27;8.10;;;3.45;;
10458;SDS011;5277;48.722;8.736;2022-11-14T16:07:58;6.90;;;2.97;;
10458;SDS011;5277;48.722;8.736;2022-11-14T16:10:25;5.35;;;3.20;;
10458;SDS011;5277;48.722;8.736;2022-11-14T16:12:54;7.47;;;3.55;;
10458;SDS011;5277;48.722;8.736;2022-11-14T16:15:20;6.30;;;4.05;;
10458;SDS011;5277;48.722;8.736;2022-11-14T16:17:47;6.57;;;3.85;;
10458;SDS011;5277;48.722;8.736;2022-11-14T16:20:23;4.75;;;3.45;;
10458;SDS011;5277;48.722;8.736;2022-11-14T16:22:50;8.18;;;3.53;;
10458;SDS011;5277;48.722;8.736;2022-11-14T16:25:27;5.60;;;3.63;;
10458;SDS011;5277;48.722;8.736;2022-11-14T16:27:57;6.15;;;3.40;;
10458;SDS011;5277;48.722;8.736;2022-11-14T16:30:23;7.75;;;3.38;;
10458;SDS011;5277;48.722;8.736;2022-11-14T16:32:51;5.70;;;3.42;;
10458;SDS011;5277;48.722;8.736;2022-11-14T16:35:17;8.38;;;3.53;;
10458;SDS011;5277;48.722;8.736;2022-11-14T16:37:45;6.85;;;4.20;;
10458;SDS011;5277;48.722;8.736;2022-11-14T16:40:12;5.95;;;3.60;;
10458;SDS011;5277;48.722;8.736;2022-11-14T16:42:41;4.25;;;3.30;;
10458;SDS011;5277;48.722;8.736;2022-11-14T16:45:08;7.95;;;3.60;;
10458;SDS011;5277;48.722;8.736;2022-11-14T16:47:33;12.98;;;3.80;;
10458;SDS011;5277;48.722;8.736;2022-11-14T16:50:00;13.38;;;3.90;;
10458;SDS011;5277;48.722;8.736;2022-11-14T16:52:26;5.28;;;3.15;;
10458;SDS011;5277;48.722;8.736;2022-11-14T16:54:52;4.70;;;3.58;;
10458;SDS011;5277;48.722;8.736;2022-11-14T16:57:18;7.05;;;3.92;;
10458;SDS011;5277;48.722;8.736;2022-11-14T16:59:43;5.45;;;4.28;;
10458;SDS011;5277;48.722;8.736;2022-11-14T17:02:15;8.63;;;3.65;;
10458;SDS011;5277;48.722;8.736;2022-11-14T17:04:41;9.18;;;4.15;;
10458;SDS011;5277;48.722;8.736;2022-11-14T17:07:08;8.27;;;4.70;;
10458;SDS011;5277;48.722;8.736;2022-11-14T17:09:35;6.25;;;3.13;;
10458;SDS011;5277;48.722;8.736;2022-11-14T17:12:01;5.93;;;4.13;;
10458;SDS011;5277;48.722;8.736;2022-11-14T17:14:27;7.72;;;3.47;;
10458;SDS011;5277;48.722;8.736;2022-11-14T17:16:53;8.95;;;3.95;;
10458;SDS011;5277;48.722;8.736;2022-11-14T17:19:18;6.07;;;3.90;;
10458;SDS011;5277;48.722;8.736;2022-11-14T17:21:44;10.35;;;5.00;;
10458;SDS011;5277;48.722;8.736;2022-11-14T17:24:10;7.72;;;5.10;;
10458;SDS011;5277;48.722;8.736;2022-11-14T17:26:36;11.73;;;4.95;;
10458;SDS011;5277;48.722;8.736;2022-11-14T17:29:02;10.73;;;4.88;;